Latest Weather Observations for Holsworthy

IDN60901

Issued at 9:31 pm EST Sunday 16 June 2019 (issued every 10 minutes, with the page automatically refreshed every 10 minutes)

About weather observations | Map of Sydney area stations | Latest observations for Sydney area | Other Formats
Station Details ID: 066161 Name: HOLSWORTHY AERODROME AWS Lat: -33.99 Lon: 150.95 Height: 68.16 m
Data from the previous 72 hours. | See also: Recent months at Holsworthy
Date/Time
EST
Temp
°C
App
Temp
°C
Dew
Point
°C
Rel
Hum
%
Delta-T
°C
Wind Press
QNH
hPa
Press
MSL
hPa
Rain since
9am
mm
Dir  Spd
km/h
Gust
km/h
Spd
kts
Gust
kts
16/09:30pm 11.5 10.0 10.7 95 0.4 SW 9 13 5 7 1019.9 1019.9 8.4
16/09:00pm 11.9 10.5 10.8 93 0.6 WSW 9 13 5 7 1020.2 1020.2 8.4
16/08:30pm 12.1 10.3 10.8 92 0.7 SW 11 19 6 10 1020.0 1020.0 8.4
16/08:00pm 12.1 10.5 11.5 96 0.3 WSW 11 15 6 8 1020.0 1020.0 8.4
16/07:30pm 12.2 10.7 11.9 98 0.2 WSW 11 19 6 10 1019.9 1019.9 8.4
16/07:00pm 12.3 11.2 11.8 97 0.3 W 9 11 5 6 1019.9 1019.9 8.4
16/06:30pm 12.4 10.9 11.8 96 0.3 SW 11 15 6 8 1019.6 1019.6 8.4
16/06:00pm 12.6 11.5 11.8 95 0.4 WSW 9 13 5 7 1019.5 1019.5 8.4
16/05:30pm 12.8 11.6 11.7 93 0.6 SSW 9 11 5 6 1019.4 1019.4 8.4
16/05:00pm 12.9 12.4 12.0 94 0.5 SW 6 9 3 5 1019.4 1019.4 8.2
16/04:30pm 13.0 12.2 11.7 92 0.7 SSW 7 9 4 5 1019.2 1019.2 8.2
16/04:00pm 13.4 12.8 11.8 90 0.9 SW 6 9 3 5 1019.3 1019.3 8.2
16/03:30pm 13.7 12.6 11.8 88 1.0 SSE 9 13 5 7 1019.2 1019.2 8.2
16/03:23pm 13.8 13.0 11.8 88 1.1 S 7 11 4 6 1019.3 1019.3 8.2
16/03:00pm 14.2 13.2 12.4 89 1.0 SE 9 15 5 8 1019.3 1019.3 8.2
16/02:30pm 14.3 13.8 12.7 90 0.9 SSE 7 15 4 8 1019.2 1019.2 8.2
16/02:20pm 14.1 13.6 12.7 91 0.8 N 7 9 4 5 1019.4 1019.4 8.2
16/02:00pm 14.2 13.4 12.8 91 0.8 S 9 19 5 10 1019.3 1019.3 8.2
16/01:30pm 14.0 12.5 13.1 94 0.5 S 13 22 7 12 1019.1 1019.1 8.2
16/01:00pm 13.9 13.2 13.1 95 0.4 SSW 9 15 5 8 1019.6 1019.6 8.0
16/12:30pm 13.5 12.2 12.4 93 0.6 S 11 17 6 9 1020.3 1020.3 6.4
16/12:00pm 13.9 13.1 13.0 94 0.5 SSE 9 11 5 6 1020.6 1020.6 4.2
16/11:30am 14.0 13.7 13.2 95 0.4 SW 7 13 4 7 1020.9 1020.9 2.2
16/11:26am 14.0 13.3 13.2 95 0.4 SSW 9 15 5 8 1021.0 1021.0 2.0
16/11:12am 13.8 13.0 12.9 94 0.5 S 9 15 5 8 1021.2 1021.2 1.4
16/11:00am 13.8 13.4 12.9 94 0.5 S 7 9 4 5 1021.3 1021.3 1.0
16/10:30am 13.8 12.7 13.0 95 0.4 SSE 11 17 6 9 1021.3 1021.3 0.8
16/10:00am 13.5 11.9 12.7 95 0.4 SSE 13 20 7 11 1021.5 1021.5 0.8
16/09:30am 13.3 11.8 13.0 98 0.2 S 13 20 7 11 1021.3 1021.3 0.2
16/09:00am 12.5 11.9 12.3 99 0.1 SW 7 9 4 5 1021.6 1021.6 6.0
16/08:30am 11.9 11.1 11.7 99 0.1 WSW 7 11 4 6 1021.5 1021.5 6.0
16/08:00am 11.6 10.9 11.3 98 0.2 SW 6 7 3 4 1021.6 1021.6 5.8
16/07:30am 11.5 10.7 11.2 98 0.2 NW 6 9 3 5 1021.6 1021.6 5.4
16/07:13am 11.4 11.0 11.1 98 0.2 N 4 6 2 3 1021.4 1021.4 5.0
16/07:00am 11.5 10.6 11.2 98 0.2 NNW 7 7 4 4 1021.3 1021.3 4.8
16/06:59am 11.4 10.4 11.1 98 0.2 NNW 7 7 4 4 1021.3 1021.3 4.6
16/06:30am 11.4 10.4 11.1 98 0.2 WSW 7 11 4 6 1020.7 1020.7 4.0
16/06:00am 11.3 10.3 11.0 98 0.2 WSW 7 9 4 5 1020.6 1020.6 4.0
16/05:30am 11.2 11.1 10.7 97 0.3 WNW 2 7 1 4 1020.6 1020.6 3.8
16/05:00am 11.1 9.6 10.6 97 0.3 WSW 9 11 5 6 1020.2 1020.2 3.4
16/04:30am 11.0 9.1 10.4 96 0.3 SW 11 15 6 8 1020.2 1020.2 3.2
16/04:00am 10.9 9.3 10.3 96 0.3 WSW 9 13 5 7 1020.7 1020.7 3.0
16/03:30am 10.9 9.6 10.1 95 0.4 WSW 7 13 4 7 1020.4 1020.4 3.0
16/03:00am 11.0 9.4 10.2 95 0.4 WSW 9 13 5 7 1020.6 1020.6 3.0
16/02:48am 11.2 9.2 10.3 94 0.5 WSW 11 15 6 8 1021.0 1021.0 3.0
16/02:30am 11.4 10.4 10.3 93 0.6 WSW 6 9 3 5 1021.6 1021.6 2.4
16/02:28am 11.4 10.4 10.3 93 0.6 WSW 6 9 3 5 1021.7 1021.7 2.2
16/02:00am 11.5 9.6 10.4 93 0.6 WSW 11 15 6 8 1021.4 1021.4 0.8
16/01:30am 11.5 9.9 10.2 92 0.7 SW 9 13 5 7 1021.1 1021.1 0.8
16/01:00am 11.8 10.4 10.9 94 0.5 WSW 9 11 5 6 1021.2 1021.2 0.8
16/12:30am 12.1 10.7 11.0 93 0.6 WSW 9 13 5 7 1021.5 1021.5 0.8
16/12:00am 12.4 11.5 11.3 93 0.6 WSW 7 9 4 5 1021.7 1021.7 0.6
 
Date/Time
EST
Temp
°C
App
Temp
°C
Dew
Point
°C
Rel
Hum
%
Delta-T
°C
Wind Press
QNH
hPa
Press
MSL
hPa
Rain since
9am
mm
Dir  Spd
km/h
Gust
km/h
Spd
kts
Gust
kts
15/11:30pm 13.1 12.3 11.2 88 1.0 SSE 6 9 3 5 1021.8 1021.8 0.4
15/11:00pm 13.9 12.9 10.3 79 1.9 WSW 6 9 3 5 1021.8 1021.8 0.0
15/10:30pm 14.4 13.4 10.4 77 2.1 S 6 9 3 5 1021.7 1021.7 0.0
15/10:00pm 14.5 12.6 10.5 77 2.1 SSE 11 15 6 8 1021.5 1021.5 0.0
15/09:30pm 14.5 13.0 10.5 77 2.1 SSE 9 15 5 8 1021.7 1021.7 0.0
15/09:00pm 14.4 12.0 10.2 76 2.2 SSE 13 20 7 11 1021.5 1021.5 0.0
15/08:30pm 14.3 12.2 9.9 75 2.3 SSE 11 15 6 8 1021.4 1021.4 0.0
15/08:00pm 14.7 12.3 10.1 74 2.4 S 13 19 7 10 1021.4 1021.4 0.0
15/07:30pm 14.1 12.1 10.1 77 2.1 S 11 20 6 11 1021.4 1021.4 0.0
15/07:00pm 12.9 10.8 9.9 82 1.5 SSE 11 15 6 8 1021.2 1021.2 0.0
15/06:30pm 11.9 9.7 8.0 77 1.9 SE 9 11 5 6 1020.8 1020.8 0.0
15/06:00pm 13.2 11.5 8.5 73 2.3 SSW 7 9 4 5 1020.4 1020.4 0.0
15/05:30pm 13.4 11.7 8.5 72 2.5 SSE 7 9 4 5 1020.1 1020.1 0.0
15/05:00pm 13.9 12.1 7.9 67 3.0 SE 7 9 4 5 1019.8 1019.8 0.0
15/04:30pm 16.1 13.5 7.8 58 4.2 SSE 11 13 6 7 1019.5 1019.5 0.0
15/04:00pm 17.3 14.8 6.5 49 5.3 SSE 9 15 5 8 1019.5 1019.5 0.0
15/03:30pm 17.6 14.1 5.5 45 5.9 SSE 13 17 7 9 1019.5 1019.5 0.0
15/03:00pm 17.9 14.4 5.5 44 6.0 SSE 13 17 7 9 1019.4 1019.4 0.0
15/02:30pm 17.6 16.8 6.5 48 5.5 CALM 0 0 0 0 1019.4 1019.4 0.0
15/02:00pm 18.1 16.1 4.3 40 6.5 ESE 4 11 2 6 1019.2 1019.2 0.0
15/01:30pm 18.8 16.4 5.3 41 6.6 WNW 7 11 4 6 1019.2 1019.2 0.0
15/01:00pm 18.4 16.0 5.3 42 6.4 N 7 15 4 8 1019.5 1019.5 0.0
15/12:30pm 17.8 15.2 6.0 46 5.8 W 9 15 5 8 1019.8 1019.8 0.0
15/12:00pm 17.3 14.7 6.2 48 5.4 W 9 13 5 7 1020.3 1020.3 0.0
15/11:30am 16.5 13.7 6.9 53 4.8 W 11 17 6 9 1020.6 1020.6 0.0
15/11:00am 15.7 12.5 7.0 56 4.3 WSW 13 20 7 11 1021.1 1021.1 0.0
15/10:30am 15.0 11.9 7.3 60 3.8 WSW 13 20 7 11 1021.4 1021.4 0.0
15/10:00am 13.9 10.7 6.7 62 3.5 W 13 24 7 13 1021.5 1021.5 0.0
15/09:30am 12.8 8.8 6.8 67 2.9 WSW 17 26 9 14 1021.3 1021.3 0.0
15/09:00am 12.0 8.8 6.9 71 2.4 WSW 13 22 7 12 1021.3 1021.3 0.0
15/08:30am 10.8 7.9 6.4 74 2.1 WSW 11 17 6 9 1021.0 1021.0 0.0
15/08:00am 9.4 6.4 5.8 78 1.6 WSW 11 15 6 8 1020.7 1020.7 0.0
15/07:30am 8.2 5.4 5.3 82 1.3 WSW 9 13 5 7 1020.5 1020.5 0.0
15/07:00am 7.1 4.3 5.3 88 0.8 WSW 9 15 5 8 1020.3 1020.3 0.0
15/06:30am 5.2 2.6 4.3 94 0.4 WSW 7 9 4 5 1020.0 1020.0 0.0
15/06:00am 4.6 2.1 3.6 93 0.4 W 6 7 3 4 1019.7 1019.7 0.0
15/05:30am 5.4 3.0 4.5 94 0.4 WSW 6 9 3 5 1019.4 1019.4 0.0
15/05:00am 5.1 2.1 4.1 93 0.4 WSW 9 11 5 6 1019.2 1019.2 0.0
15/04:30am 4.9 2.2 3.9 93 0.4 WSW 7 9 4 5 1019.2 1019.2 0.0
15/04:00am 5.3 2.8 3.8 90 0.6 WSW 6 7 3 4 1019.2 1019.2 0.0
15/03:30am 5.7 2.8 4.5 92 0.5 WSW 9 11 5 6 1019.2 1019.2 0.0
15/03:00am 5.6 2.6 4.2 91 0.6 W 9 11 5 6 1019.4 1019.4 0.0
15/02:30am 5.6 2.9 3.8 88 0.8 NNW 7 9 4 5 1019.4 1019.4 0.0
15/02:00am 7.0 4.4 4.3 83 1.2 WSW 7 11 4 6 1019.3 1019.3 0.0
15/01:30am 8.0 5.1 4.6 79 1.5 SW 9 13 5 7 1019.4 1019.4 0.0
15/01:00am 7.9 4.9 4.3 78 1.6 SW 9 11 5 6 1019.6 1019.6 0.0
15/12:30am 8.6 5.7 4.4 75 1.9 WSW 9 13 5 7 1019.8 1019.8 0.0
15/12:00am 9.1 6.6 4.5 73 2.0 SW 7 13 4 7 1019.9 1019.9 0.0
 
Date/Time
EST
Temp
°C
App
Temp
°C
Dew
Point
°C
Rel
Hum
%
Delta-T
°C
Wind Press
QNH
hPa
Press
MSL
hPa
Rain since
9am
mm
Dir  Spd
km/h
Gust
km/h
Spd
kts
Gust
kts
14/11:30pm 9.7 6.4 4.5 70 2.3 SW 11 15 6 8 1020.0 1020.0 0.0
14/11:00pm 10.5 6.8 4.6 67 2.6 SSW 13 20 7 11 1020.2 1020.2 0.0
14/10:30pm 8.6 5.6 4.2 74 1.9 SW 9 13 5 7 1020.2 1020.2 0.0
14/10:00pm 10.0 6.7 4.4 68 2.5 SW 11 13 6 7 1020.4 1020.4 0.0
14/09:30pm 9.7 6.7 4.3 69 2.4 WSW 9 11 5 6 1020.3 1020.3 0.0
14/09:00pm 10.2 7.2 4.1 66 2.7 SW 9 11 5 6 1020.3 1020.3 0.0
14/08:30pm 9.6 7.1 4.8 72 2.2 SSW 7 11 4 6 1020.3 1020.3 0.0
14/08:00pm 10.5 8.0 4.9 68 2.5 WSW 7 9 4 5 1020.1 1020.1 0.0
14/07:30pm 11.4 8.9 4.6 63 3.1 WSW 7 9 4 5 1019.9 1019.9 0.0
14/07:00pm 12.0 9.2 5.0 62 3.2 SW 9 11 5 6 1019.6 1019.6 0.0
14/06:30pm 12.0 9.2 5.0 62 3.2 SW 9 13 5 7 1019.2 1019.2 0.0
14/06:00pm 13.9 10.7 5.3 56 4.0 SSW 11 15 6 8 1018.7 1018.7 0.0
14/05:30pm 14.3 11.6 5.4 55 4.2 SW 9 13 5 7 1018.4 1018.4 0.0
14/05:00pm 13.7 11.3 6.8 63 3.3 WSW 9 11 5 6 1018.1 1018.1 0.0
14/04:30pm 15.3 13.4 6.8 57 4.2 SW 6 9 3 5 1017.9 1017.9 0.0
14/04:00pm 17.0 15.6 7.1 52 4.9 WNW 4 7 2 4 1017.7 1017.7 0.0
14/03:30pm 16.9 14.8 5.8 48 5.4 NW 6 7 3 4 1017.6 1017.6 0.0
14/03:00pm 17.8 15.3 4.7 42 6.3 WNW 7 9 4 5 1017.6 1017.6 0.0
14/02:30pm 17.2 14.7 4.9 44 5.9 NW 7 13 4 7 1017.8 1017.8 0.0
14/02:00pm 17.5 14.6 4.8 43 6.1 NW 9 15 5 8 1018.1 1018.1 0.0
14/01:30pm 17.4 14.3 5.4 45 5.8 WNW 11 17 6 9 1018.0 1018.0 0.0
14/01:00pm 17.9 15.3 6.1 46 5.8 W 9 13 5 7 1018.3 1018.3 0.0
14/12:30pm 17.9 14.8 5.5 44 6.0 WNW 11 20 6 11 1018.6 1018.6 0.0
14/12:00pm 16.8 13.5 6.6 51 5.0 W 13 19 7 10 1019.0 1019.0 0.0
14/11:30am 16.4 12.6 5.7 49 5.2 WSW 15 24 8 13 1019.5 1019.5 0.0
14/11:00am 15.6 11.3 5.2 50 4.9 WSW 17 24 9 13 1019.9 1019.9 0.0
14/10:30am 15.0 11.1 5.2 52 4.6 WSW 15 26 8 14 1020.2 1020.2 0.0
14/10:00am 13.9 10.2 4.5 53 4.3 WSW 13 22 7 12 1020.4 1020.4 0.0
14/09:30am 12.9 9.3 5.1 59 3.6 W 13 20 7 11 1020.5 1020.5 0.0
14/09:00am 11.5 8.7 5.2 65 2.9 WNW 9 13 5 7 1020.6 1020.6 0.0
14/08:30am 10.8 7.9 4.5 65 2.8 W 9 13 5 7 1020.4 1020.4 0.0
14/08:00am 10.1 7.5 4.0 66 2.7 W 7 9 4 5 1020.1 1020.1 0.0
14/07:30am 9.6 7.1 3.8 67 2.5 W 6 9 3 5 1019.7 1019.7 0.0
14/07:00am 9.5 6.4 3.7 67 2.5 WSW 9 15 5 8 1019.3 1019.3 0.0
14/06:30am 9.0 6.2 3.4 68 2.4 WSW 7 13 4 7 1019.0 1019.0 0.0
14/06:00am 9.5 6.4 3.5 66 2.6 SW 9 15 5 8 1018.7 1018.7 0.0
14/05:30am 9.4 6.3 3.4 66 2.6 WSW 9 17 5 9 1018.4 1018.4 0.0
14/05:00am 9.9 6.0 3.4 64 2.8 SW 13 19 7 10 1018.0 1018.0 0.0
14/04:30am 10.2 6.7 3.5 63 2.9 SW 11 17 6 9 1017.9 1017.9 0.0
14/04:00am 10.4 7.3 3.7 63 2.9 WSW 9 19 5 10 1017.8 1017.8 0.0
14/03:30am 10.3 7.2 3.8 64 2.9 SW 9 15 5 8 1017.8 1017.8 0.0
14/03:00am 9.9 6.1 4.1 67 2.6 SW 13 20 7 11 1017.9 1017.9 0.0
14/02:30am 9.6 6.6 4.2 69 2.4 SW 9 13 5 7 1017.9 1017.9 0.0
14/02:00am 10.0 7.3 3.7 65 2.8 SW 7 9 4 5 1017.9 1017.9 0.0
14/01:30am 11.6 8.6 3.9 59 3.4 W 9 15 5 8 1018.0 1018.0 0.0
14/01:00am 12.3 8.9 4.0 57 3.7 WSW 11 17 6 9 1017.8 1017.8 0.0
14/12:30am 13.1 9.0 4.5 56 4.0 WSW 15 20 8 11 1018.0 1018.0 0.0
14/12:00am 12.5 8.6 5.2 61 3.4 SW 15 22 8 12 1018.1 1018.1 0.0
 
Date/Time
EST
Temp
°C
App
Temp
°C
Dew
Point
°C
Rel
Hum
%
Delta-T
°C
Wind Press
QNH
hPa
Press
MSL
hPa
Rain since
9am
mm
Dir  Spd
km/h
Gust
km/h
Spd
kts
Gust
kts
13/11:30pm 12.4 9.3 5.6 63 3.2 SW 11 19 6 10 1018.3 1018.3 0.0
13/11:00pm 12.6 10.0 6.2 65 3.0 SW 9 13 5 7 1018.4 1018.4 0.0
13/10:30pm 12.7 10.3 7.2 69 2.7 SW 9 15 5 8 1018.3 1018.3 0.0
13/10:00pm 13.1 10.3 7.1 67 2.9 WSW 11 15 6 8 1018.1 1018.1 0.0

Latest Capital City Observations: Canberra | Sydney | Melbourne | Brisbane | Adelaide | Perth | Hobart | Darwin

Other formats

Comma delimited format used in spreadsheet applications
http://www.bom.gov.au/fwo/IDN60901/IDN60901.95761.axf

JavaScript Object Notation format (JSON) in row-major order
http://www.bom.gov.au/fwo/IDN60901/IDN60901.95761.json

Data quality

Most of these data are generated automatically and are frequently updated. Quality checks on data are not normally performed. It is possible for incorrect values to appear. Refer to information at About Latest Weather Observations and please check the disclaimer before using these data.